KRKP/RKP METAR and TAF weather

Enter ICAO airport designator
Station Type Date Time Source
KRKP METAR 2020/11/28 20:19 UTC NOAA

KRKP 282019Z AUTO 06019G29KT 2 1/2SM -RA BR SCT009 OVC038 19/18 A2997 RMK AO2 PK WND 06029/2001 P0000 T01890183 $


Station Type Date Time Source
KRKP Decoded METAR 2020/11/28 20:19 UTC NOAA

ROCKPORT ARANSAS COUNTY AIRPORT , TX, United States (KRKP) 28-05N 97-03W 6M
Nov 28, 2020 - 03:19 PM EST / 2020.11.28 2019 UTC
Wind: from the ENE (060 degrees) at 22 MPH (19 KT) gusting to 33 MPH (29 KT):0
Visibility: 2 1/2 mile(s):0
Sky conditions: overcast
Weather: light rain; mist
Precipitation last hour: A trace
Temperature: 66.0 F (18.9 C)
Dew Point: 64.9 F (18.3 C)
Relative Humidity: 96%
Pressure (altimeter): 29.97 in. Hg (1014 hPa)
ob: KRKP 282019Z AUTO 06019G29KT 2 1/2SM -RA BR SCT009 OVC038 19/18 A2997 RMK AO2 PK WND 06029/2001 P0000 T01890183
cycle: 20

Station Type Date Time Source
KRKP TAF UTC NOAA

Error!

Example: see airport list